| time (UTC) | temp F | wind direction | speed knots | gust knots | rain 1hr in | rain 24hr in | rain mn in | humidity % | barometer mb |
| 20260906064656 | 80 | 167 | 0.0 | 0.0 | 0.00 | 0.00 | 0.00 | 84 | 993.0 |
| 20260906063155 | 81 | 167 | 0.0 | 0.0 | 0.00 | 0.00 | 0.00 | 84 | 993.2 |
| 20260906061656 | 81 | 167 | 0.0 | 0.0 | 0.00 | 0.00 | 0.00 | 83 | 993.0 |
| 20260906060157 | 81 | 167 | 0.0 | 0.0 | 0.00 | 0.00 | 0.00 | 83 | 992.8 |
| 20260906054655 | 81 | 178 | 0.0 | 0.0 | 0.00 | 0.00 | 0.00 | 82 | 992.7 |
| 20260906051656 | 82 | 37 | 0.0 | 0.0 | 0.00 | 0.00 | 0.00 | 79 | 992.9 |
| 20260906044655 | 83 | 35 | 0.0 | 0.0 | 0.00 | 0.00 | 0.00 | 78 | 993.2 |
| 20260906041656 | 83 | 41 | 0.0 | 0.0 | 0.00 | 0.00 | 0.00 | 78 | 993.1 |
| 20260906040156 | 83 | 41 | 0.0 | 0.0 | 0.00 | 0.00 | 0.00 | 77 | 993.4 |
| 20260906033156 | 85 | 41 | 0.0 | 0.0 | 0.00 | 0.00 | 0.00 | 74 | 993.3 |
| 20260906031655 | 85 | 41 | 0.0 | 0.0 | 0.00 | 0.00 | 0.00 | 72 | 993.1 |
| 20260906030156 | 85 | 41 | 0.0 | 0.0 | 0.00 | 0.00 | 0.00 | 72 | 992.9 |
| 20260906024654 | 86 | 41 | 0.0 | 0.0 | 0.00 | 0.00 | 0.00 | 71 | 992.9 |
| 20260906023157 | 87 | 41 | 0.0 | 0.0 | 0.00 | 0.00 | 0.00 | 70 | 992.5 |
| 20260906020159 | 87 | 41 | 0.0 | 0.0 | 0.00 | 0.00 | 0.00 | 68 | 992.1 |
| 20260906014654 | 88 | 41 | 0.0 | 0.0 | 0.00 | 0.00 | 0.00 | 67 | 992.1 |
| 20260906013156 | 89 | 41 | 0.0 | 0.0 | 0.00 | 0.00 | 0.00 | 67 | 992.2 |
| 20260906011656 | 90 | 41 | 0.0 | 0.0 | 0.00 | 0.00 | 0.00 | 66 | 992.1 |
| 20260906010157 | 90 | 41 | 0.0 | 0.9 | 0.00 | 0.00 | 0.00 | 64 | 991.9 |
| 20260906003156 | 92 | 41 | 0.0 | 0.0 | 0.00 | 0.00 | 0.00 | 60 | 991.7 |
| 20260906001655 | 93 | 41 | 0.0 | 0.0 | 0.00 | 0.00 | 0.00 | 60 | 991.9 |
| 20260906000158 | 94 | 41 | 0.0 | 0.0 | 0.00 | 0.00 | 0.00 | 58 | 991.9 |
| 20260905231656 | 97 | 12 | 0.0 | 2.6 | 0.00 | 0.00 | 0.00 | 53 | 991.9 |
| 20260905224659 | 98 | 45 | 0.0 | 2.6 | 0.00 | 0.00 | 0.00 | 51 | 991.9 |
| 20260905223153 | 99 | 26 | 0.0 | 0.9 | 0.00 | 0.00 | 0.00 | 50 | 991.8 |
| 20260905221653 | 99 | 93 | 0.0 | 0.9 | 0.00 | 0.00 | 0.00 | 53 | 991.9 |
| 20260905220156 | 100 | 303 | 0.0 | 1.7 | 0.00 | 0.00 | 0.00 | 48 | 992.0 |
| 20260905214658 | 98 | 150 | 0.9 | 3.5 | 0.00 | 0.00 | 0.00 | 55 | 992.0 |
| 20260905213156 | 99 | 215 | 1.7 | 4.3 | 0.00 | 0.00 | 0.00 | 50 | 992.2 |
| 20260905211654 | 98 | 235 | 0.9 | 3.5 | 0.00 | 0.00 | 0.00 | 53 | 992.2 |
| 20260905210158 | 99 | 72 | 0.0 | 3.5 | 0.00 | 0.00 | 0.00 | 52 | 992.1 |
| 20260905203154 | 100 | 223 | 0.0 | 5.2 | 0.00 | 0.00 | 0.00 | 49 | 992.4 |
| 20260905201654 | 99 | 70 | 0.0 | 2.6 | 0.00 | 0.00 | 0.00 | 55 | 992.6 |
| 20260905200158 | 97 | 50 | 0.0 | 2.6 | 0.00 | 0.00 | 0.00 | 53 | 992.9 |
| 20260905194655 | 98 | 204 | 0.9 | 3.5 | 0.00 | 0.00 | 0.00 | 51 | 993.2 |
| 20260905193157 | 98 | 78 | 2.6 | 10.4 | 0.00 | 0.00 | 0.00 | 57 | 993.4 |
| 20260905191654 | 98 | 264 | 0.9 | 4.3 | 0.00 | 0.00 | 0.00 | 50 | 993.6 |
| 20260905184654 | 99 | 8 | 0.9 | 2.6 | 0.00 | 0.00 | 0.00 | 53 | 994.1 |
| 20260905181657 | 98 | 96 | 0.0 | 2.6 | 0.00 | 0.00 | 0.00 | 53 | 994.4 |
| 20260905174658 | 95 | 141 | 0.0 | 4.3 | 0.00 | 0.00 | 0.00 | 61 | 994.5 |
| 20260905171700 | 93 | 225 | 0.9 | 2.6 | 0.00 | 0.00 | 0.00 | 60 | 994.7 |
| 20260905164655 | 91 | 60 | 1.7 | 3.5 | 0.00 | 0.00 | 0.00 | 65 | 995.1 |
| 20260905163155 | 90 | 320 | 1.7 | 3.5 | 0.00 | 0.00 | 0.00 | 64 | 995.4 |
| 20260905161654 | 90 | 317 | 0.9 | 2.6 | 0.00 | 0.00 | 0.00 | 66 | 995.5 |
| 20260905160154 | 89 | 15 | 0.0 | 3.5 | 0.00 | 0.00 | 0.00 | 69 | 995.6 |
| 20260905151654 | 87 | 190 | 0.9 | 2.6 | 0.00 | 0.00 | 0.00 | 70 | 995.8 |
| 20260905150156 | 86 | 306 | 0.0 | 0.0 | 0.00 | 0.00 | 0.00 | 72 | 995.7 |
| 20260905143201 | 84 | 219 | 0.0 | 0.0 | 0.00 | 0.00 | 0.00 | 78 | 995.8 |
| 20260905140154 | 82 | 258 | 0.0 | 0.0 | 0.00 | 0.00 | 0.00 | 81 | 996.1 |
| 20260905133153 | 79 | 12 | 0.0 | 0.0 | 0.00 | 0.00 | 0.00 | 84 | 995.9 |
| 20260905131657 | 78 | 30 | 0.0 | 0.0 | 0.00 | 0.00 | 0.00 | 86 | 995.9 |
| 20260905130154 | 77 | 30 | 0.0 | 0.0 | 0.00 | 0.00 | 0.00 | 88 | 996.0 |
| 20260905124653 | 76 | 47 | 0.0 | 0.0 | 0.00 | 0.00 | 0.00 | 89 | 996.1 |
| 20260905123152 | 75 | 45 | 0.0 | 0.0 | 0.00 | 0.00 | 0.00 | 90 | 996.0 |
| 20260905121657 | 75 | 58 | 0.0 | 0.0 | 0.00 | 0.00 | 0.00 | 90 | 995.9 |
| 20260905114656 | 74 | 58 | 0.0 | 0.0 | 0.00 | 0.00 | 0.00 | 90 | 995.6 |
| 20260905113152 | 74 | 58 | 0.0 | 0.0 | 0.00 | 0.00 | 0.00 | 90 | 995.3 |
| 20260905111654 | 74 | 58 | 0.0 | 0.0 | 0.00 | 0.00 | 0.00 | 89 | 995.3 |
| 20260905104700 | 75 | 58 | 0.0 | 0.0 | 0.00 | 0.00 | 0.00 | 89 | 994.9 |
| 20260905103157 | 75 | 58 | 0.0 | 0.9 | 0.00 | 0.00 | 0.00 | 88 | 994.8 |
| 20260905100156 | 75 | 105 | 0.0 | 0.0 | 0.00 | 0.00 | 0.00 | 88 | 994.7 |
| 20260905094656 | 75 | 105 | 0.0 | 0.0 | 0.00 | 0.00 | 0.00 | 88 | 994.5 |
| 20260905093156 | 75 | 44 | 0.0 | 0.0 | 0.00 | 0.00 | 0.00 | 86 | 994.4 |
| 20260905091655 | 75 | 44 | 0.0 | 0.0 | 0.00 | 0.00 | 0.00 | 86 | 994.3 |
| 20260905090155 | 75 | 44 | 0.0 | 0.0 | 0.00 | 0.00 | 0.00 | 86 | 994.3 |
| 20260905084654 | 76 | 44 | 0.0 | 0.0 | 0.00 | 0.00 | 0.00 | 85 | 994.2 |
| 20260905081658 | 76 | 7 | 0.0 | 0.0 | 0.00 | 0.00 | 0.00 | 85 | 994.3 |
| 20260905080156 | 76 | 7 | 0.0 | 0.9 | 0.00 | 0.00 | 0.00 | 85 | 994.2 |
| 20260905073155 | 77 | 24 | 0.0 | 0.0 | 0.00 | 0.00 | 0.00 | 84 | 994.1 |
| 20260905070158 | 77 | 24 | 0.0 | 0.0 | 0.00 | 0.00 | 0.00 | 84 | 994.4 |